CW4610 Weather Reports


Display with metric or nautical units.
time (UTC)temp
F
wind
direction
speed
MPH
gust
MPH
rain 1hr
in
rain 24hr
in
rain mn
in
humidity
%
barometer
mb
20181219073526 44 179 0.0 4.0 0.02 0.93 0.93 92 1012.5
20181219072526 45 134 0.0 6.0 0.01 0.92 0.92 91 1012.6
20181219071527 45 165 0.0 10.0 0.01 0.92 0.92 91 1012.6
20181219070527 45 158 2.0 14.0 0.00 0.91 0.91 90 1012.2
20181219065526 45 142 5.0 15.0 0.00 0.91 0.91 92 1011.9
20181219064526 44 145 3.0 14.0 0.00 0.91 0.91 95 1011.9
20181219063526 44 179 2.0 10.0 0.00 0.91 0.91 97 1011.6
20181219062526 43 139 0.0 10.0 0.00 0.91 0.91 97 1011.5
20181219061527 44 172 0.0 8.0 0.00 0.91 0.91 98 1011.5
20181219060526 43 145 2.0 9.0 0.01 0.92 0.91 99 1011.1
20181219055526 43 128 3.0 8.0 0.01 0.93 0.91 99 1010.6
20181219054526 42 111 1.0 8.0 0.01 0.95 0.91 100 1010.6
20181219053527 41 115 0.0 7.0 0.01 0.95 0.91 99 1010.6
20181219052526 41 0.0 0.0 0.02 0.97 0.91 99 1010.5
20181219051526 41 313 1.0 8.0 0.02 0.99 0.91 99 1010.5
20181219050526 43 0.0 0.0 0.01 0.98 0.90 100 1010.0
20181219045526 43 0.0 5.0 0.01 0.98 0.90 100 1009.7
20181219044526 42 148 0.0 4.0 0.01 0.98 0.90 100 1009.7
20181219043526 42 0.0 0.0 0.01 0.99 0.90 99 1009.4
20181219042526 42 0.0 0.0 0.00 1.00 0.89 100 1009.5
20181219041526 41 0.0 0.0 0.00 1.00 0.89 99 1009.5
20181219040526 41 298 1.0 7.0 0.00 1.00 0.89 99 1009.4
20181219035526 41 0.0 0.0 0.00 1.01 0.89 99 1008.6
20181219034525 41 0.0 0.0 0.00 1.01 0.89 99 1008.6
20181219033526 41 0.0 0.0 0.00 1.02 0.89 99 1008.4
20181219032526 42 0.0 0.0 0.00 1.03 0.89 99 1007.8
20181219031518 42 0.0 0.0 0.00 1.04 0.89 99 1007.8
20181219030526 42 0.0 5.0 0.00 1.06 0.89 99 1007.6
20181219025526 42 0.0 1.0 0.01 1.08 0.89 99 1007.5
20181219024526 42 0.0 0.0 0.01 1.10 0.89 99 1007.5
20181219023526 42 0.0 0.0 0.02 1.13 0.89 99 1007.4
20181219022525 42 0.0 0.0 0.03 1.15 0.89 99 1007.3
20181219021526 42 0.0 0.0 0.03 1.17 0.89 99 1007.3
20181219020525 43 0.0 0.0 0.03 1.19 0.89 99 1006.7
20181219015525 42 0.0 0.0 0.04 1.20 0.88 99 1006.6
20181219014525 43 0.0 0.0 0.05 1.22 0.88 99 1006.6
20181219013526 42 0.0 0.0 0.04 1.23 0.87 99 1006.3
20181219012525 42 0.0 0.0 0.04 1.25 0.86 99 1005.8
20181219011527 42 0.0 0.0 0.04 1.29 0.86 99 1005.8
20181219010525 43 0.0 0.0 0.04 1.31 0.86 99 1004.9
20181219005525 43 0.0 0.0 0.02 1.34 0.84 99 1004.4
20181219004525 43 0.0 0.0 0.01 1.38 0.83 99 1004.4
20181219003526 43 0.0 0.0 0.01 1.42 0.83 99 1003.8
20181219002526 43 0.0 0.0 0.00 1.43 0.82 99 1003.7
20181219001527 43 0.0 0.0 0.00 1.45 0.82 99 1003.7
20181219000526 43 0.0 0.0 0.01 1.47 0.82 99 1003.9
20181218235525 43 0.0 0.0 0.03 1.49 0.82 99 1003.8
20181218234525 43 0.0 0.0 0.04 1.51 0.82 99 1003.8
20181218233525 43 0.0 12.0 0.05 1.53 0.82 99 1003.9
20181218232525 44 295 2.0 10.0 0.06 1.54 0.82 99 1003.2
20181218231525 44 343 0.0 6.0 0.06 1.56 0.82 99 1003.2
20181218230525 44 0.0 0.0 0.05 1.58 0.81 99 1002.7
20181218225526 44 0.0 0.0 0.03 1.58 0.79 99 1002.3
20181218224525 44 0.0 0.0 0.03 1.57 0.78 99 1002.3
20181218223526 44 0.0 0.0 0.05 1.57 0.77 99 1002.1
20181218222525 44 0.0 0.0 0.05 1.57 0.76 99 1002.0
20181218221525 44 0.0 0.0 0.05 1.58 0.76 99 1002.0
20181218220525 44 0.0 8.0 0.05 1.60 0.76 100 1001.9
20181218215525 43 112 2.0 10.0 0.05 1.61 0.76 100 1002.2
20181218214525 43 125 1.0 7.0 0.04 1.61 0.75 100 1002.1
20181218213525 43 296 0.0 4.0 0.01 1.59 0.72 100 1002.1
20181218212525 43 0.0 0.0 0.03 1.59 0.71 100 1001.6
20181218211525 42 0.0 4.0 0.05 1.59 0.71 100 1001.6
20181218210526 42 0.0 0.0 0.08 1.61 0.71 100 1001.9
20181218205525 42 0.0 0.0 0.09 1.62 0.71 100 1002.1
20181218204525 42 0.0 0.0 0.10 1.62 0.71 100 1002.1
20181218203525 42 64 0.0 5.0 0.10 1.62 0.71 100 1002.2
20181218202525 41 0.0 8.0 0.09 1.60 0.68 100 1001.8
20181218201525 41 28 0.0 4.0 0.07 1.58 0.66 100 1001.8
20181218200525 41 0.0 0.0 0.06 1.55 0.63 100 1001.4
20181218195525 41 0.0 5.0 0.08 1.54 0.62 100 1001.2
20181218194517 41 305 2.0 7.0 0.09 1.53 0.61 100 1001.2
20181218193525 41 0.0 5.0 0.12 1.53 0.61 100 1001.1
20181218192525 40 309 1.0 7.0 0.10 1.51 0.59 100 1001.1
20181218191525 40 0.0 0.0 0.12 1.52 0.59 100 1001.1
20181218190524 40 345 0.0 4.0 0.10 1.50 0.56 99 1001.0
20181218185525 40 19 1.0 6.0 0.07 1.47 0.54 99 1000.9
20181218184525 40 326 0.0 7.0 0.05 1.45 0.52 99 1000.9
20181218183525 40 322 2.0 6.0 0.02 1.42 0.49 99 1000.5
20181218182518 40 0.0 2.0 0.01 1.42 0.48 99 1000.1
20181218181524 40 355 1.0 5.0 0.00 1.41 0.47 99 1000.1
20181218180525 40 0.0 3.0 0.00 1.42 0.47 100 999.8
20181218175527 40 0.0 3.0 0.00 1.43 0.47 100 999.5
20181218174527 40 0.0 0.0 0.00 1.43 0.47 100 999.5
20181218173527 40 0.0 0.0 0.00 1.43 0.47 100 999.2
20181218172518 40 0.0 0.0 0.00 1.43 0.47 100 999.1
20181218171527 40 0.0 0.0 0.00 1.43 0.47 99 999.1
20181218170527 40 0.0 0.0 0.00 1.44 0.47 99 999.0
20181218165527 40 0.0 0.0 0.00 1.44 0.47 99 999.0
20181218164527 40 0.0 0.0 0.01 1.44 0.47 99 999.0
20181218163528 40 0.0 0.0 0.01 1.44 0.47 99 999.0
20181218162526 40 0.0 0.0 0.04 1.45 0.47 99 998.5
20181218161526 39 0.0 0.0 0.06 1.45 0.47 100 998.5
20181218160526 39 0.0 0.0 0.06 1.45 0.47 100 998.0
20181218155527 39 0.0 0.0 0.06 1.45 0.47 100 997.7
20181218154527 39 0.0 0.0 0.06 1.44 0.46 100 997.7
20181218153527 39 341 0.0 2.0 0.06 1.44 0.46 100 997.4
20181218152526 39 0.0 0.0 0.03 1.41 0.43 100 997.3
20181218151526 39 0.0 0.0 0.01 1.39 0.41 100 997.3
20181218150526 39 0.0 0.0 0.00 1.38 0.40 100 996.9
20181218145527 39 0.0 0.0 0.00 1.38 0.40 100 996.8
20181218144526 39 0.0 0.0 0.00 1.38 0.40 100 996.8
20181218143526 39 0.0 0.0 0.01 1.38 0.40 100 996.6
20181218142527 39 0.0 0.0 0.01 1.38 0.40 100 996.4
20181218141526 39 0.0 0.0 0.02 1.38 0.40 100 996.4
20181218140526 39 0.0 0.0 0.03 1.38 0.40 100 996.2
20181218135526 39 0.0 0.0 0.04 1.39 0.40 99 996.3
20181218134526 39 0.0 0.0 0.06 1.39 0.40 99 996.3
20181218133526 39 0.0 0.0 0.06 1.38 0.39 99 996.0
20181218132526 39 0.0 0.0 0.06 1.38 0.39 99 996.2
20181218131528 39 39 0.0 4.0 0.06 1.37 0.38 99 996.2
20181218130526 39 24 1.0 4.0 0.07 1.36 0.37 99 996.2
20181218125526 39 331 0.0 5.0 0.07 1.36 0.36 99 996.1
20181218124526 39 351 0.0 1.0 0.06 1.34 0.34 99 996.1
20181218123526 39 0.0 1.0 0.06 1.33 0.33 99 995.9
20181218122527 39 0.0 0.0 0.08 1.34 0.33 99 995.9
20181218121527 39 333 0.0 1.0 0.10 1.33 0.32 99 995.9
20181218120526 39 306 0.0 3.0 0.11 1.31 0.30 99 996.4
20181218115526 39 0.0 0.0 0.15 1.30 0.28 99 996.5
20181218114526 39 0.0 0.0 0.18 1.29 0.28 99 996.5
20181218113527 39 0.0 0.0 0.20 1.28 0.27 99 996.6
20181218112527 39 317 0.0 1.0 0.18 1.26 0.25 99 996.9
20181218111526 39 0.0 0.0 0.17 1.23 0.21 99 997.0
20181218110526 39 0.0 0.0 0.16 1.20 0.18 99 997.0
20181218105526 39 52 0.0 1.0 0.12 1.16 0.14 99 997.2
20181218104526 39 0.0 0.0 0.09 1.12 0.10 99 997.2
20181218103525 39 0.0 0.0 0.06 1.09 0.07 99 997.4
20181218102526 38 53 0.0 1.0 0.06 1.09 0.06 99 997.5
20181218101527 38 52 0.0 2.0 0.04 1.07 0.04 99 997.5
20181218100526 38 0.0 0.0 0.02 1.05 0.02 99 997.6
20181218095518 38 0.0 0.0 0.02 1.06 0.02 99 997.5
20181218094526 38 0.0 4.0 0.01 1.05 0.01 99 997.5
20181218093526 38 313 1.0 5.0 0.01 1.06 0.01 99 997.5
20181218092527 38 323 1.0 5.0 0.00 1.05 0.00 99 997.4
20181218090526 38 0.0 0.0 0.00 1.05 0.00 99 997.7
20181218085526 38 0.0 0.0 0.00 1.05 0.00 99 997.9
20181218084526 38 0.0 0.0 0.00 1.05 0.00 99 997.9
20181218083525 38 0.0 0.0 0.00 1.05 0.00 99 998.5
20181218082526 38 0.0 0.0 0.00 1.05 0.00 99 999.1
20181218081525 38 0.0 0.0 0.00 1.06 0.00 99 999.1
20181218080525 38 0.0 0.0 0.00 1.07 0.00 99 999.5
20181218075527 38 0.0 4.0 0.00 1.07 1.07 99 999.5
20181218074527 38 320 1.0 7.0 0.00 1.07 1.07 99 999.5